NWWMNWWD

Guest
Details From NWWM - NOUMEA MAGENTA
To NWWD - Kone
Flight Number -
Tags generated
Created
Modified
Stats Distance 117 nm / 216 km
Max Altitude 7,500 ft / 2,286 m
Waypoints 3
Social Downloads 0
Likes 0
Share VATSIM

Download

Looking for another format? Having issues loading an existing format? Contact us
Advertisement - Login to hide

Notes

Basic altitude profile: - Ascent Rate: 2000ft/min - Ascent Speed: 150kts - Cruise Altitude: 500ft - Cruise Speed: 250kts - Descent Rate: 1500ft/min - Descent Speed: 150kts Options: - Use NATs: yes - Use PACOTS: yes - Use low airways: yes - Use high airways: yes

Route

NWWM LTO NWWD

ID Type Via Altitude Latitude Longitude Leg Dist Tot Dist Heading (true) Name
O NWWM APT - 0 ft / 0 m -22.25828˚ 166.47281˚ - 0 nm - NOUMEA MAGENTA
LTO VOR - 7,500 ft / 2,286 m -22.00511˚ 166.21178˚ 21 nm 21 nm 316° / 316° LA TONTOUTA VOR-DME
O NWWD APT - 0 ft / 0 m -21.05343˚ 164.83778˚ 95 nm 116 nm 306° / 307° Kone

Altitude Profile

Advertisement - Login to hide

NWWM

Details ICAO NWWM (GEA)
Name NOUMEA MAGENTA
Region New Caledonia
Timezone Pacific/Noumea (UTC+11.0)
Stats Elevation 10 ft / 3 m (AMSL)
Location -22.258278° 166.472805°
Runways 1
Magnetic Variation 12.445° E

METAR

Not found

TAF

TAF NWWM 121700Z 1218/1318 08006KT 9999 SCT033 SCT050 BKN065 PROB30 TEMPO 1218/1223 SHRA BKN014 SCT020TCU BECMG 1223/1301 14020KT PROB30 TEMPO 1300/1308 4000 SHRA SCT020CB

Decode

Departure Runways

ID Width Length Bearing (true) Bearing (mag) Surface Threshold Offset Overrun Length
17 98 ft / 30 m 4,153 ft / 1,266 m 178.58° 166.13° Asphalt 685 ft / 209 m 0 ft / 0 m
35 98 ft / 30 m 4,153 ft / 1,266 m 358.58° 346.13° Asphalt 500 ft / 152 m 0 ft / 0 m

NWWD

Details ICAO NWWD (KNQ)
Name Kone
Region New Caledonia
Timezone Pacific/Noumea (UTC+11.0)
Stats Elevation 22 ft / 7 m (AMSL)
Location -21.053433° 164.837778°
Runways 1
Magnetic Variation 11.843° E

METAR

Not found

TAF

TAF NWWD 121700Z 1218/1318 06005KT 9999 FEW025 SCT035 TEMPO 1218/1312 4000 SHRA SCT026TCU PROB30 TEMPO 1300/1306 2000 SHRA BKN010 SCT025CB

Decode

Destination Runways

ID Width Length Bearing (true) Bearing (mag) Surface Threshold Offset Overrun Length
09 75 ft / 23 m 3,279 ft / 999 m 99.96° 88.12° Asphalt 0 ft / 0 m 0 ft / 0 m
27 75 ft / 23 m 3,279 ft / 999 m 279.96° 268.12° Asphalt 0 ft / 0 m 0 ft / 0 m

Popular Alternatives